Thurmont, MD

3:44 PM EST on December 05, 2016 (GMT -0500)
Jimtown Road | | Change Station

Elev 442 ft 39.60 °N, 77.39 °W | Updated 14 minutes ago

Clear
Clear
55.0 °F
Feels Like 55.0 °F
N
5.6
Wind Variable Wind from NW
Gusts 8.7 mph

Today
High -- | Low -- °F
--% Chance of Precip.
Yesterday
High -- | Low -- °F
Precip. -- in
Pressure 30.05 in
Visibility 10.0 miles
Clouds Clear
Dew Point 34 °F
Humidity 45%
Rainfall 0.16 in
Snow Depth Not available.
7:15 AM 4:45 PM
Waxing Crescent, 34% visible
METAR KRSP 051954Z AUTO 35007KT 10SM CLR 07/M01 A3000 RMK AO2 SLP174 T00721006 $
Pressure 30.05 in
Visibility 10.0 miles
Clouds Clear
Dew Point 34 °F
Humidity 45%
Rainfall 0.16 in
Snow Depth Not available.
7:15 AM 4:45 PM
Waxing Crescent, 34% visible
METAR KRSP 051954Z AUTO 35007KT 10SM CLR 07/M01 A3000 RMK AO2 SLP174 T00721006 $

10-Day Weather Forecast

Almanac

Astronomy

Dec. 05, 2016 Rise Set
Actual Time
Civil Twilight
Nautical Twilight
Astronomical Twilight
Moon
Length of Visible Light
Length of Day
Tomorrow will be .
, % of the Moon is Illuminated

Today's Extremes

State Highs State Lows

Community

WunderPhotos

Upload Photos

1,955,861 photos uploaded!

WunderBlog® & News

Nearby

Air Quality

  Air Quality AQ Index Pollutant
Not available.

Snow Depth

Station Depth Elevation

Earthquake Activity

City Distance Mag. Time & Date
Minimum magnitude displayed is 2.5.

Coastal Water Temperatures

Place Temperature

Stations

Nearby Weather Stations

Station Location Temp. Windchill Dew Point Humidity Wind Precip. Elev Updated Type
                   

Watches & Warnings

There are currently no watches in effect.